sensor_id;sensor_type;location;lat;lon;timestamp;P1;durP1;ratioP1;P2;durP2;ratioP2
14342;SDS011;7255;53.596;9.960;2023-04-01T00:00:45;13.80;;;9.23;;
14342;SDS011;7255;53.596;9.960;2023-04-01T00:03:13;10.52;;;9.07;;
14342;SDS011;7255;53.596;9.960;2023-04-01T00:05:39;14.13;;;8.82;;
14342;SDS011;7255;53.596;9.960;2023-04-01T00:08:05;14.63;;;8.95;;
14342;SDS011;7255;53.596;9.960;2023-04-01T00:10:32;15.05;;;9.88;;
14342;SDS011;7255;53.596;9.960;2023-04-01T00:12:58;13.32;;;9.27;;
14342;SDS011;7255;53.596;9.960;2023-04-01T00:15:24;15.85;;;10.57;;
14342;SDS011;7255;53.596;9.960;2023-04-01T00:17:51;11.18;;;8.75;;
14342;SDS011;7255;53.596;9.960;2023-04-01T00:20:19;14.55;;;9.18;;
14342;SDS011;7255;53.596;9.960;2023-04-01T00:22:45;16.08;;;9.43;;
14342;SDS011;7255;53.596;9.960;2023-04-01T00:25:12;13.27;;;8.35;;
14342;SDS011;7255;53.596;9.960;2023-04-01T00:27:39;16.50;;;9.88;;
14342;SDS011;7255;53.596;9.960;2023-04-01T00:30:06;12.82;;;9.52;;
14342;SDS011;7255;53.596;9.960;2023-04-01T00:32:33;12.02;;;9.93;;
14342;SDS011;7255;53.596;9.960;2023-04-01T00:35:00;14.43;;;9.60;;
14342;SDS011;7255;53.596;9.960;2023-04-01T00:37:28;17.33;;;10.65;;
14342;SDS011;7255;53.596;9.960;2023-04-01T00:39:55;12.35;;;8.40;;
14342;SDS011;7255;53.596;9.960;2023-04-01T00:42:21;16.50;;;9.68;;
14342;SDS011;7255;53.596;9.960;2023-04-01T00:44:49;15.63;;;9.25;;
14342;SDS011;7255;53.596;9.960;2023-04-01T00:47:16;15.38;;;10.30;;
14342;SDS011;7255;53.596;9.960;2023-04-01T00:49:44;18.55;;;10.30;;
14342;SDS011;7255;53.596;9.960;2023-04-01T00:52:13;13.50;;;10.00;;
14342;SDS011;7255;53.596;9.960;2023-04-01T00:54:44;18.98;;;10.38;;
14342;SDS011;7255;53.596;9.960;2023-04-01T00:57:15;16.05;;;8.70;;
14342;SDS011;7255;53.596;9.960;2023-04-01T00:59:46;15.05;;;9.95;;
14342;SDS011;7255;53.596;9.960;2023-04-01T01:02:15;16.83;;;9.45;;
14342;SDS011;7255;53.596;9.960;2023-04-01T01:04:43;14.20;;;9.57;;
14342;SDS011;7255;53.596;9.960;2023-04-01T01:07:12;13.75;;;8.38;;
14342;SDS011;7255;53.596;9.960;2023-04-01T01:09:52;16.05;;;9.75;;
14342;SDS011;7255;53.596;9.960;2023-04-01T01:12:29;15.80;;;9.35;;
14342;SDS011;7255;53.596;9.960;2023-04-01T01:15:07;14.60;;;9.18;;
14342;SDS011;7255;53.596;9.960;2023-04-01T01:17:40;18.30;;;10.23;;
14342;SDS011;7255;53.596;9.960;2023-04-01T01:23:18;14.77;;;9.23;;
14342;SDS011;7255;53.596;9.960;2023-04-01T01:26:06;15.27;;;9.23;;
14342;SDS011;7255;53.596;9.960;2023-04-01T01:28:52;14.80;;;8.77;;
14342;SDS011;7255;53.596;9.960;2023-04-01T01:31:29;10.35;;;8.68;;
14342;SDS011;7255;53.596;9.960;2023-04-01T01:34:06;12.52;;;7.87;;
14342;SDS011;7255;53.596;9.960;2023-04-01T01:36:43;12.55;;;8.80;;
14342;SDS011;7255;53.596;9.960;2023-04-01T01:39:14;17.00;;;8.75;;
14342;SDS011;7255;53.596;9.960;2023-04-01T01:41:42;13.02;;;8.15;;
14342;SDS011;7255;53.596;9.960;2023-04-01T01:44:12;17.23;;;9.43;;
14342;SDS011;7255;53.596;9.960;2023-04-01T01:46:42;14.75;;;9.10;;
14342;SDS011;7255;53.596;9.960;2023-04-01T01:49:10;13.60;;;8.82;;
14342;SDS011;7255;53.596;9.960;2023-04-01T01:51:39;15.77;;;8.80;;
14342;SDS011;7255;53.596;9.960;2023-04-01T01:54:12;14.52;;;8.32;;
14342;SDS011;7255;53.596;9.960;2023-04-01T01:56:39;15.93;;;8.60;;
14342;SDS011;7255;53.596;9.960;2023-04-01T01:59:09;11.85;;;7.95;;
14342;SDS011;7255;53.596;9.960;2023-04-01T02:01:38;13.57;;;8.23;;
14342;SDS011;7255;53.596;9.960;2023-04-01T02:04:09;11.27;;;7.22;;
14342;SDS011;7255;53.596;9.960;2023-04-01T02:06:38;16.52;;;8.98;;
14342;SDS011;7255;53.596;9.960;2023-04-01T02:09:08;14.70;;;8.05;;
14342;SDS011;7255;53.596;9.960;2023-04-01T02:11:39;14.07;;;7.57;;
14342;SDS011;7255;53.596;9.960;2023-04-01T02:14:10;12.88;;;7.60;;
14342;SDS011;7255;53.596;9.960;2023-04-01T02:16:39;16.27;;;7.78;;
14342;SDS011;7255;53.596;9.960;2023-04-01T02:19:12;17.17;;;7.90;;
14342;SDS011;7255;53.596;9.960;2023-04-01T02:21:41;13.57;;;7.45;;
14342;SDS011;7255;53.596;9.960;2023-04-01T02:24:10;10.02;;;7.25;;
14342;SDS011;7255;53.596;9.960;2023-04-01T02:26:41;10.55;;;7.35;;
14342;SDS011;7255;53.596;9.960;2023-04-01T02:29:08;9.52;;;7.70;;
14342;SDS011;7255;53.596;9.960;2023-04-01T02:31:37;12.55;;;6.75;;
14342;SDS011;7255;53.596;9.960;2023-04-01T02:34:04;12.20;;;7.18;;
14342;SDS011;7255;53.596;9.960;2023-04-01T02:36:30;12.30;;;7.62;;
14342;SDS011;7255;53.596;9.960;2023-04-01T02:38:58;11.12;;;7.68;;
14342;SDS011;7255;53.596;9.960;2023-04-01T02:41:27;10.95;;;7.55;;
14342;SDS011;7255;53.596;9.960;2023-04-01T02:43:54;14.07;;;8.18;;
14342;SDS011;7255;53.596;9.960;2023-04-01T02:46:22;13.98;;;8.18;;
14342;SDS011;7255;53.596;9.960;2023-04-01T02:48:48;13.60;;;7.85;;
14342;SDS011;7255;53.596;9.960;2023-04-01T02:51:15;10.77;;;7.95;;
14342;SDS011;7255;53.596;9.960;2023-04-01T02:53:41;13.82;;;8.45;;
14342;SDS011;7255;53.596;9.960;2023-04-01T02:56:07;10.57;;;7.72;;
14342;SDS011;7255;53.596;9.960;2023-04-01T02:58:33;12.23;;;8.02;;
14342;SDS011;7255;53.596;9.960;2023-04-01T03:01:01;13.00;;;8.00;;
14342;SDS011;7255;53.596;9.960;2023-04-01T03:03:28;13.02;;;7.87;;
14342;SDS011;7255;53.596;9.960;2023-04-01T03:05:54;13.60;;;7.95;;
14342;SDS011;7255;53.596;9.960;2023-04-01T03:08:21;11.57;;;8.00;;
14342;SDS011;7255;53.596;9.960;2023-04-01T03:10:47;12.30;;;7.32;;
14342;SDS011;7255;53.596;9.960;2023-04-01T03:13:14;13.15;;;8.32;;
14342;SDS011;7255;53.596;9.960;2023-04-01T03:15:40;13.70;;;8.77;;
14342;SDS011;7255;53.596;9.960;2023-04-01T03:18:08;13.95;;;7.82;;
14342;SDS011;7255;53.596;9.960;2023-04-01T03:20:34;14.82;;;8.30;;
14342;SDS011;7255;53.596;9.960;2023-04-01T03:23:00;13.55;;;8.27;;
14342;SDS011;7255;53.596;9.960;2023-04-01T03:25:27;13.60;;;8.00;;
14342;SDS011;7255;53.596;9.960;2023-04-01T03:27:55;11.80;;;8.07;;
14342;SDS011;7255;53.596;9.960;2023-04-01T03:30:24;11.95;;;9.02;;
14342;SDS011;7255;53.596;9.960;2023-04-01T03:32:50;14.85;;;8.32;;
14342;SDS011;7255;53.596;9.960;2023-04-01T03:35:18;14.85;;;8.93;;
14342;SDS011;7255;53.596;9.960;2023-04-01T03:37:45;12.02;;;9.00;;
14342;SDS011;7255;53.596;9.960;2023-04-01T03:40:11;12.80;;;8.25;;
14342;SDS011;7255;53.596;9.960;2023-04-01T03:42:37;15.30;;;9.38;;
14342;SDS011;7255;53.596;9.960;2023-04-01T03:45:04;10.23;;;8.15;;
14342;SDS011;7255;53.596;9.960;2023-04-01T03:47:31;12.20;;;8.32;;
14342;SDS011;7255;53.596;9.960;2023-04-01T03:49:57;13.52;;;8.88;;
14342;SDS011;7255;53.596;9.960;2023-04-01T03:52:25;13.25;;;8.48;;
14342;SDS011;7255;53.596;9.960;2023-04-01T03:54:52;14.93;;;8.55;;
14342;SDS011;7255;53.596;9.960;2023-04-01T03:57:18;16.10;;;8.82;;
14342;SDS011;7255;53.596;9.960;2023-04-01T03:59:45;11.70;;;9.02;;
14342;SDS011;7255;53.596;9.960;2023-04-01T04:02:11;10.63;;;8.57;;
14342;SDS011;7255;53.596;9.960;2023-04-01T04:04:37;17.33;;;9.70;;
14342;SDS011;7255;53.596;9.960;2023-04-01T04:07:04;11.30;;;8.75;;
14342;SDS011;7255;53.596;9.960;2023-04-01T04:09:32;15.60;;;9.50;;
14342;SDS011;7255;53.596;9.960;2023-04-01T04:11:59;15.40;;;9.63;;
14342;SDS011;7255;53.596;9.960;2023-04-01T04:14:25;12.05;;;8.98;;
14342;SDS011;7255;53.596;9.960;2023-04-01T04:16:52;14.80;;;9.60;;
14342;SDS011;7255;53.596;9.960;2023-04-01T04:19:18;14.60;;;9.25;;
14342;SDS011;7255;53.596;9.960;2023-04-01T04:21:45;12.50;;;9.55;;
14342;SDS011;7255;53.596;9.960;2023-04-01T04:24:11;14.27;;;8.80;;
14342;SDS011;7255;53.596;9.960;2023-04-01T04:26:39;18.33;;;9.32;;
14342;SDS011;7255;53.596;9.960;2023-04-01T04:29:05;11.93;;;8.98;;
14342;SDS011;7255;53.596;9.960;2023-04-01T04:31:31;15.32;;;9.80;;
14342;SDS011;7255;53.596;9.960;2023-04-01T04:33:58;12.55;;;9.00;;
14342;SDS011;7255;53.596;9.960;2023-04-01T04:36:25;11.63;;;9.18;;
14342;SDS011;7255;53.596;9.960;2023-04-01T04:38:52;16.67;;;10.05;;
14342;SDS011;7255;53.596;9.960;2023-04-01T04:41:18;13.55;;;8.73;;
14342;SDS011;7255;53.596;9.960;2023-04-01T04:43:49;13.60;;;9.02;;
14342;SDS011;7255;53.596;9.960;2023-04-01T04:46:17;14.20;;;9.40;;
14342;SDS011;7255;53.596;9.960;2023-04-01T04:48:44;15.43;;;9.60;;
14342;SDS011;7255;53.596;9.960;2023-04-01T04:51:12;15.07;;;9.27;;
14342;SDS011;7255;53.596;9.960;2023-04-01T04:53:40;13.00;;;9.73;;
14342;SDS011;7255;53.596;9.960;2023-04-01T04:56:06;14.07;;;9.95;;
14342;SDS011;7255;53.596;9.960;2023-04-01T04:58:32;14.65;;;9.90;;
14342;SDS011;7255;53.596;9.960;2023-04-01T05:01:05;14.25;;;10.52;;
14342;SDS011;7255;53.596;9.960;2023-04-01T05:03:33;14.43;;;10.27;;
14342;SDS011;7255;53.596;9.960;2023-04-01T05:05:59;15.98;;;10.45;;
14342;SDS011;7255;53.596;9.960;2023-04-01T05:08:25;16.87;;;10.35;;
14342;SDS011;7255;53.596;9.960;2023-04-01T05:10:52;15.93;;;10.27;;
14342;SDS011;7255;53.596;9.960;2023-04-01T05:13:18;19.45;;;11.20;;
14342;SDS011;7255;53.596;9.960;2023-04-01T05:15:44;13.93;;;10.38;;
14342;SDS011;7255;53.596;9.960;2023-04-01T05:18:12;12.95;;;9.75;;
14342;SDS011;7255;53.596;9.960;2023-04-01T05:20:38;9.98;;;7.90;;
14342;SDS011;7255;53.596;9.960;2023-04-01T05:23:04;7.80;;;5.50;;
14342;SDS011;7255;53.596;9.960;2023-04-01T05:25:31;3.60;;;2.83;;
14342;SDS011;7255;53.596;9.960;2023-04-01T05:27:57;2.08;;;1.95;;
14342;SDS011;7255;53.596;9.960;2023-04-01T05:30:23;2.00;;;1.90;;
14342;SDS011;7255;53.596;9.960;2023-04-01T05:32:50;2.00;;;1.90;;
14342;SDS011;7255;53.596;9.960;2023-04-01T05:35:17;2.50;;;1.80;;
14342;SDS011;7255;53.596;9.960;2023-04-01T05:37:44;1.73;;;1.60;;
14342;SDS011;7255;53.596;9.960;2023-04-01T05:40:10;2.10;;;1.75;;
14342;SDS011;7255;53.596;9.960;2023-04-01T05:42:37;2.77;;;1.90;;
14342;SDS011;7255;53.596;9.960;2023-04-01T05:45:03;2.08;;;1.90;;
14342;SDS011;7255;53.596;9.960;2023-04-01T05:47:30;2.00;;;1.87;;
14342;SDS011;7255;53.596;9.960;2023-04-01T05:49:57;3.28;;;1.87;;
14342;SDS011;7255;53.596;9.960;2023-04-01T05:52:24;1.67;;;1.57;;
14342;SDS011;7255;53.596;9.960;2023-04-01T05:54:51;2.20;;;2.00;;
14342;SDS011;7255;53.596;9.960;2023-04-01T05:57:17;1.50;;;1.40;;
14342;SDS011;7255;53.596;9.960;2023-04-01T05:59:43;2.40;;;2.00;;
14342;SDS011;7255;53.596;9.960;2023-04-01T06:02:10;2.03;;;1.90;;
14342;SDS011;7255;53.596;9.960;2023-04-01T06:04:37;1.80;;;1.70;;
14342;SDS011;7255;53.596;9.960;2023-04-01T06:07:09;1.90;;;1.80;;
14342;SDS011;7255;53.596;9.960;2023-04-01T06:09:39;2.23;;;2.03;;
14342;SDS011;7255;53.596;9.960;2023-04-01T06:12:16;2.00;;;1.90;;
14342;SDS011;7255;53.596;9.960;2023-04-01T06:14:57;2.10;;;2.00;;
14342;SDS011;7255;53.596;9.960;2023-04-01T06:17:38;2.00;;;1.90;;
14342;SDS011;7255;53.596;9.960;2023-04-01T06:20:15;2.47;;;1.87;;
14342;SDS011;7255;53.596;9.960;2023-04-01T06:22:56;2.20;;;2.00;;
14342;SDS011;7255;53.596;9.960;2023-04-01T06:25:51;2.43;;;2.23;;
14342;SDS011;7255;53.596;9.960;2023-04-01T06:31:20;2.53;;;2.00;;
14342;SDS011;7255;53.596;9.960;2023-04-01T06:34:08;2.53;;;1.80;;
14342;SDS011;7255;53.596;9.960;2023-04-01T06:36:50;2.40;;;2.20;;
14342;SDS011;7255;53.596;9.960;2023-04-01T06:39:27;2.23;;;2.07;;
14342;SDS011;7255;53.596;9.960;2023-04-01T06:45:05;4.03;;;1.90;;
14342;SDS011;7255;53.596;9.960;2023-04-01T06:47:42;1.90;;;1.80;;
14342;SDS011;7255;53.596;9.960;2023-04-01T06:50:21;2.57;;;2.10;;
14342;SDS011;7255;53.596;9.960;2023-04-01T06:52:55;1.87;;;1.77;;
14342;SDS011;7255;53.596;9.960;2023-04-01T06:55:27;1.93;;;1.73;;
14342;SDS011;7255;53.596;9.960;2023-04-01T06:58:01;1.70;;;1.60;;
14342;SDS011;7255;53.596;9.960;2023-04-01T07:00:32;2.43;;;2.23;;
14342;SDS011;7255;53.596;9.960;2023-04-01T07:03:10;1.97;;;1.60;;
14342;SDS011;7255;53.596;9.960;2023-04-01T07:05:44;2.50;;;1.67;;
14342;SDS011;7255;53.596;9.960;2023-04-01T07:08:11;2.07;;;1.80;;
14342;SDS011;7255;53.596;9.960;2023-04-01T07:10:43;1.60;;;1.50;;
14342;SDS011;7255;53.596;9.960;2023-04-01T07:13:14;1.70;;;1.60;;
14342;SDS011;7255;53.596;9.960;2023-04-01T07:15:49;1.63;;;1.53;;
14342;SDS011;7255;53.596;9.960;2023-04-01T07:18:24;1.70;;;1.60;;
14342;SDS011;7255;53.596;9.960;2023-04-01T07:20:58;1.67;;;1.57;;
14342;SDS011;7255;53.596;9.960;2023-04-01T07:23:26;1.67;;;1.50;;
14342;SDS011;7255;53.596;9.960;2023-04-01T07:25:58;1.60;;;1.50;;
14342;SDS011;7255;53.596;9.960;2023-04-01T07:28:29;1.50;;;1.40;;
14342;SDS011;7255;53.596;9.960;2023-04-01T07:31:00;2.23;;;1.63;;
14342;SDS011;7255;53.596;9.960;2023-04-01T07:33:41;1.80;;;1.70;;
14342;SDS011;7255;53.596;9.960;2023-04-01T07:36:13;1.60;;;1.50;;
14342;SDS011;7255;53.596;9.960;2023-04-01T07:38:48;1.70;;;1.60;;
14342;SDS011;7255;53.596;9.960;2023-04-01T07:41:27;1.70;;;1.60;;
14342;SDS011;7255;53.596;9.960;2023-04-01T07:44:07;1.77;;;1.40;;
14342;SDS011;7255;53.596;9.960;2023-04-01T07:46:49;1.93;;;1.60;;
14342;SDS011;7255;53.596;9.960;2023-04-01T07:49:22;1.50;;;1.40;;
14342;SDS011;7255;53.596;9.960;2023-04-01T07:51:56;1.90;;;1.70;;
14342;SDS011;7255;53.596;9.960;2023-04-01T07:54:29;1.70;;;1.60;;
14342;SDS011;7255;53.596;9.960;2023-04-01T07:57:03;3.23;;;1.70;;
14342;SDS011;7255;53.596;9.960;2023-04-01T07:59:37;1.77;;;1.67;;
14342;SDS011;7255;53.596;9.960;2023-04-01T08:02:16;3.23;;;1.70;;
14342;SDS011;7255;53.596;9.960;2023-04-01T08:04:53;2.10;;;1.90;;
14342;SDS011;7255;53.596;9.960;2023-04-01T08:07:28;1.90;;;1.80;;
14342;SDS011;7255;53.596;9.960;2023-04-01T08:10:07;2.17;;;1.50;;
14342;SDS011;7255;53.596;9.960;2023-04-01T08:12:43;1.90;;;1.67;;
14342;SDS011;7255;53.596;9.960;2023-04-01T08:15:20;1.87;;;1.77;;
14342;SDS011;7255;53.596;9.960;2023-04-01T08:17:54;2.23;;;1.73;;
14342;SDS011;7255;53.596;9.960;2023-04-01T08:20:28;1.60;;;1.50;;
14342;SDS011;7255;53.596;9.960;2023-04-01T08:23:03;1.83;;;1.50;;
14342;SDS011;7255;53.596;9.960;2023-04-01T08:25:34;1.80;;;1.70;;
14342;SDS011;7255;53.596;9.960;2023-04-01T08:28:09;2.10;;;1.60;;
14342;SDS011;7255;53.596;9.960;2023-04-01T08:30:43;1.57;;;1.47;;
14342;SDS011;7255;53.596;9.960;2023-04-01T08:33:14;1.60;;;1.50;;
14342;SDS011;7255;53.596;9.960;2023-04-01T08:35:46;1.80;;;1.70;;
14342;SDS011;7255;53.596;9.960;2023-04-01T08:38:17;2.20;;;2.00;;
14342;SDS011;7255;53.596;9.960;2023-04-01T08:43:47;1.60;;;1.50;;
14342;SDS011;7255;53.596;9.960;2023-04-01T08:46:46;1.60;;;1.50;;
14342;SDS011;7255;53.596;9.960;2023-04-01T08:49:32;1.73;;;1.63;;
14342;SDS011;7255;53.596;9.960;2023-04-01T08:52:22;1.60;;;1.50;;
14342;SDS011;7255;53.596;9.960;2023-04-01T08:55:03;1.93;;;1.50;;
14342;SDS011;7255;53.596;9.960;2023-04-01T08:57:45;1.50;;;1.40;;
14342;SDS011;7255;53.596;9.960;2023-04-01T09:00:22;1.70;;;1.40;;
14342;SDS011;7255;53.596;9.960;2023-04-01T09:03:16;1.57;;;1.47;;
14342;SDS011;7255;53.596;9.960;2023-04-01T09:06:06;1.50;;;1.40;;
14342;SDS011;7255;53.596;9.960;2023-04-01T09:12:18;1.70;;;1.43;;
14342;SDS011;7255;53.596;9.960;2023-04-01T09:15:20;1.70;;;1.60;;
14342;SDS011;7255;53.596;9.960;2023-04-01T09:18:23;1.57;;;1.47;;
14342;SDS011;7255;53.596;9.960;2023-04-01T09:21:04;1.50;;;1.40;;
14342;SDS011;7255;53.596;9.960;2023-04-01T09:23:47;1.90;;;1.67;;
14342;SDS011;7255;53.596;9.960;2023-04-01T09:26:39;1.50;;;1.40;;
14342;SDS011;7255;53.596;9.960;2023-04-01T09:29:27;1.50;;;1.40;;
14342;SDS011;7255;53.596;9.960;2023-04-01T09:32:11;1.30;;;1.30;;
14342;SDS011;7255;53.596;9.960;2023-04-01T09:34:55;1.60;;;1.50;;
14342;SDS011;7255;53.596;9.960;2023-04-01T09:37:34;1.50;;;1.40;;
14342;SDS011;7255;53.596;9.960;2023-04-01T09:40:17;1.40;;;1.30;;
14342;SDS011;7255;53.596;9.960;2023-04-01T09:42:56;1.63;;;1.53;;
14342;SDS011;7255;53.596;9.960;2023-04-01T09:45:36;1.50;;;1.50;;
14342;SDS011;7255;53.596;9.960;2023-04-01T09:48:14;1.53;;;1.40;;
14342;SDS011;7255;53.596;9.960;2023-04-01T09:50:50;1.90;;;1.70;;
14342;SDS011;7255;53.596;9.960;2023-04-01T09:53:28;1.60;;;1.50;;
14342;SDS011;7255;53.596;9.960;2023-04-01T09:56:19;1.50;;;1.40;;
14342;SDS011;7255;53.596;9.960;2023-04-01T09:59:16;1.40;;;1.30;;
14342;SDS011;7255;53.596;9.960;2023-04-01T10:02:23;1.57;;;1.40;;
14342;SDS011;7255;53.596;9.960;2023-04-01T10:05:20;1.90;;;1.80;;
14342;SDS011;7255;53.596;9.960;2023-04-01T10:08:23;1.37;;;1.27;;
14342;SDS011;7255;53.596;9.960;2023-04-01T10:11:11;1.50;;;1.40;;
14342;SDS011;7255;53.596;9.960;2023-04-01T10:14:01;1.53;;;1.43;;
14342;SDS011;7255;53.596;9.960;2023-04-01T10:16:57;1.57;;;1.47;;
14342;SDS011;7255;53.596;9.960;2023-04-01T10:19:59;2.10;;;1.40;;
14342;SDS011;7255;53.596;9.960;2023-04-01T10:22:40;1.40;;;1.30;;
14342;SDS011;7255;53.596;9.960;2023-04-01T10:28:41;1.20;;;1.20;;
14342;SDS011;7255;53.596;9.960;2023-04-01T10:31:48;1.37;;;1.27;;
14342;SDS011;7255;53.596;9.960;2023-04-01T10:34:41;1.47;;;1.37;;
14342;SDS011;7255;53.596;9.960;2023-04-01T10:37:40;2.43;;;1.17;;
14342;SDS011;7255;53.596;9.960;2023-04-01T10:40:26;1.70;;;1.60;;
14342;SDS011;7255;53.596;9.960;2023-04-01T10:43:19;2.00;;;1.20;;
14342;SDS011;7255;53.596;9.960;2023-04-01T10:49:14;1.40;;;1.30;;
14342;SDS011;7255;53.596;9.960;2023-04-01T10:52:12;1.10;;;1.10;;
14342;SDS011;7255;53.596;9.960;2023-04-01T10:55:00;1.00;;;1.00;;
14342;SDS011;7255;53.596;9.960;2023-04-01T10:57:56;1.30;;;1.20;;
14342;SDS011;7255;53.596;9.960;2023-04-01T11:01:00;1.30;;;1.20;;
14342;SDS011;7255;53.596;9.960;2023-04-01T11:06:55;1.20;;;1.20;;
14342;SDS011;7255;53.596;9.960;2023-04-01T11:09:48;1.10;;;1.10;;
14342;SDS011;7255;53.596;9.960;2023-04-01T11:15:52;1.50;;;1.30;;
14342;SDS011;7255;53.596;9.960;2023-04-01T11:21:40;1.50;;;1.30;;
14342;SDS011;7255;53.596;9.960;2023-04-01T11:24:32;1.10;;;1.00;;
14342;SDS011;7255;53.596;9.960;2023-04-01T11:27:25;1.63;;;1.50;;
14342;SDS011;7255;53.596;9.960;2023-04-01T11:30:15;1.63;;;1.40;;
14342;SDS011;7255;53.596;9.960;2023-04-01T11:32:51;1.70;;;1.60;;
14342;SDS011;7255;53.596;9.960;2023-04-01T11:35:34;2.27;;;1.60;;
14342;SDS011;7255;53.596;9.960;2023-04-01T11:38:19;2.00;;;1.90;;
14342;SDS011;7255;53.596;9.960;2023-04-01T11:40:54;2.00;;;1.90;;
14342;SDS011;7255;53.596;9.960;2023-04-01T11:43:27;1.80;;;1.70;;
14342;SDS011;7255;53.596;9.960;2023-04-01T11:45:59;2.33;;;2.13;;
14342;SDS011;7255;53.596;9.960;2023-04-01T11:48:37;2.17;;;1.97;;
14342;SDS011;7255;53.596;9.960;2023-04-01T11:51:15;3.87;;;2.47;;
14342;SDS011;7255;53.596;9.960;2023-04-01T11:53:59;2.37;;;2.17;;
14342;SDS011;7255;53.596;9.960;2023-04-01T11:56:41;2.27;;;2.10;;
14342;SDS011;7255;53.596;9.960;2023-04-01T11:59:30;2.37;;;2.17;;
14342;SDS011;7255;53.596;9.960;2023-04-01T12:02:11;2.30;;;2.10;;
14342;SDS011;7255;53.596;9.960;2023-04-01T12:04:59;2.60;;;2.40;;
14342;SDS011;7255;53.596;9.960;2023-04-01T12:07:44;2.53;;;2.33;;
14342;SDS011;7255;53.596;9.960;2023-04-01T12:10:20;2.87;;;2.67;;
14342;SDS011;7255;53.596;9.960;2023-04-01T12:12:49;3.03;;;2.80;;
14342;SDS011;7255;53.596;9.960;2023-04-01T12:15:28;4.93;;;3.40;;
14342;SDS011;7255;53.596;9.960;2023-04-01T12:18:03;4.57;;;2.70;;
14342;SDS011;7255;53.596;9.960;2023-04-01T12:20:40;3.83;;;3.47;;
14342;SDS011;7255;53.596;9.960;2023-04-01T12:23:22;6.73;;;3.77;;
14342;SDS011;7255;53.596;9.960;2023-04-01T12:26:10;3.93;;;3.53;;
14342;SDS011;7255;53.596;9.960;2023-04-01T12:29:03;3.33;;;2.87;;
14342;SDS011;7255;53.596;9.960;2023-04-01T12:31:42;3.00;;;2.80;;
14342;SDS011;7255;53.596;9.960;2023-04-01T12:34:30;3.30;;;2.97;;
14342;SDS011;7255;53.596;9.960;2023-04-01T12:37:10;5.20;;;3.33;;
14342;SDS011;7255;53.596;9.960;2023-04-01T12:39:52;5.00;;;3.30;;
14342;SDS011;7255;53.596;9.960;2023-04-01T12:42:35;3.63;;;3.30;;
14342;SDS011;7255;53.596;9.960;2023-04-01T12:48:12;7.57;;;4.23;;
14342;SDS011;7255;53.596;9.960;2023-04-01T12:51:00;4.07;;;3.67;;
14342;SDS011;7255;53.596;9.960;2023-04-01T12:54:01;3.60;;;3.30;;
14342;SDS011;7255;53.596;9.960;2023-04-01T12:56:40;5.53;;;3.90;;
14342;SDS011;7255;53.596;9.960;2023-04-01T12:59:18;4.43;;;3.57;;
14342;SDS011;7255;53.596;9.960;2023-04-01T13:02:11;3.97;;;3.57;;
14342;SDS011;7255;53.596;9.960;2023-04-01T13:04:55;3.43;;;3.13;;
14342;SDS011;7255;53.596;9.960;2023-04-01T13:07:38;5.47;;;3.63;;
14342;SDS011;7255;53.596;9.960;2023-04-01T13:10:15;4.23;;;3.83;;
14342;SDS011;7255;53.596;9.960;2023-04-01T13:16:03;4.30;;;3.33;;
14342;SDS011;7255;53.596;9.960;2023-04-01T13:18:39;3.20;;;3.00;;
14342;SDS011;7255;53.596;9.960;2023-04-01T13:21:21;4.63;;;4.03;;
14342;SDS011;7255;53.596;9.960;2023-04-01T13:24:00;5.27;;;4.47;;
14342;SDS011;7255;53.596;9.960;2023-04-01T13:26:35;3.53;;;3.23;;
14342;SDS011;7255;53.596;9.960;2023-04-01T13:29:07;3.77;;;3.00;;
14342;SDS011;7255;53.596;9.960;2023-04-01T13:31:46;2.83;;;2.63;;
14342;SDS011;7255;53.596;9.960;2023-04-01T13:34:30;4.30;;;3.20;;
14342;SDS011;7255;53.596;9.960;2023-04-01T13:37:10;3.17;;;2.87;;
14342;SDS011;7255;53.596;9.960;2023-04-01T13:39:51;4.83;;;3.40;;
14342;SDS011;7255;53.596;9.960;2023-04-01T13:42:40;3.30;;;3.07;;
14342;SDS011;7255;53.596;9.960;2023-04-01T13:45:14;4.10;;;3.50;;
14342;SDS011;7255;53.596;9.960;2023-04-01T13:48:02;4.20;;;3.47;;
14342;SDS011;7255;53.596;9.960;2023-04-01T13:50:57;4.03;;;3.33;;
14342;SDS011;7255;53.596;9.960;2023-04-01T13:56:42;4.50;;;3.80;;
14342;SDS011;7255;53.596;9.960;2023-04-01T13:59:29;7.20;;;3.80;;
14342;SDS011;7255;53.596;9.960;2023-04-01T14:02:30;5.10;;;3.80;;
14342;SDS011;7255;53.596;9.960;2023-04-01T14:05:18;3.63;;;3.33;;
14342;SDS011;7255;53.596;9.960;2023-04-01T14:07:56;4.67;;;4.07;;
14342;SDS011;7255;53.596;9.960;2023-04-01T14:10:35;4.80;;;3.03;;
14342;SDS011;7255;53.596;9.960;2023-04-01T14:13:06;4.40;;;3.63;;
14342;SDS011;7255;53.596;9.960;2023-04-01T14:15:41;3.80;;;3.50;;
14342;SDS011;7255;53.596;9.960;2023-04-01T14:18:25;5.37;;;3.70;;
14342;SDS011;7255;53.596;9.960;2023-04-01T14:23:56;4.73;;;4.13;;
14342;SDS011;7255;53.596;9.960;2023-04-01T14:29:32;9.27;;;4.40;;
14342;SDS011;7255;53.596;9.960;2023-04-01T14:32:10;7.03;;;4.33;;
14342;SDS011;7255;53.596;9.960;2023-04-01T14:34:43;4.93;;;3.90;;
14342;SDS011;7255;53.596;9.960;2023-04-01T14:37:34;4.57;;;4.10;;
14342;SDS011;7255;53.596;9.960;2023-04-01T14:43:28;5.40;;;4.60;;
14342;SDS011;7255;53.596;9.960;2023-04-01T14:49:22;7.07;;;4.43;;
14342;SDS011;7255;53.596;9.960;2023-04-01T14:51:56;9.30;;;4.80;;
14342;SDS011;7255;53.596;9.960;2023-04-01T14:54:32;5.40;;;4.63;;
14342;SDS011;7255;53.596;9.960;2023-04-01T14:57:05;5.97;;;5.27;;
14342;SDS011;7255;53.596;9.960;2023-04-01T14:59:39;7.13;;;5.53;;
14342;SDS011;7255;53.596;9.960;2023-04-01T15:02:09;8.57;;;5.53;;
14342;SDS011;7255;53.596;9.960;2023-04-01T15:04:53;8.73;;;4.67;;
14342;SDS011;7255;53.596;9.960;2023-04-01T15:07:35;7.33;;;5.23;;
14342;SDS011;7255;53.596;9.960;2023-04-01T15:10:19;7.83;;;5.00;;
14342;SDS011;7255;53.596;9.960;2023-04-01T15:13:02;6.73;;;4.70;;
14342;SDS011;7255;53.596;9.960;2023-04-01T15:15:41;7.27;;;4.70;;
14342;SDS011;7255;53.596;9.960;2023-04-01T15:18:25;8.83;;;4.87;;
14342;SDS011;7255;53.596;9.960;2023-04-01T15:21:08;7.20;;;5.03;;
14342;SDS011;7255;53.596;9.960;2023-04-01T15:23:45;7.17;;;5.30;;
14342;SDS011;7255;53.596;9.960;2023-04-01T15:26:25;6.00;;;4.90;;
14342;SDS011;7255;53.596;9.960;2023-04-01T15:29:02;6.77;;;5.20;;
14342;SDS011;7255;53.596;9.960;2023-04-01T15:31:40;10.67;;;5.43;;
14342;SDS011;7255;53.596;9.960;2023-04-01T15:34:17;9.33;;;5.07;;
14342;SDS011;7255;53.596;9.960;2023-04-01T15:36:55;6.13;;;5.53;;
14342;SDS011;7255;53.596;9.960;2023-04-01T15:39:29;6.77;;;5.17;;
14342;SDS011;7255;53.596;9.960;2023-04-01T15:42:11;8.27;;;5.87;;
14342;SDS011;7255;53.596;9.960;2023-04-01T15:44:53;12.50;;;5.10;;
14342;SDS011;7255;53.596;9.960;2023-04-01T15:47:35;8.43;;;6.30;;
14342;SDS011;7255;53.596;9.960;2023-04-01T15:50:17;7.67;;;5.50;;
14342;SDS011;7255;53.596;9.960;2023-04-01T15:52:56;9.00;;;5.83;;
14342;SDS011;7255;53.596;9.960;2023-04-01T15:55:36;6.70;;;5.77;;
14342;SDS011;7255;53.596;9.960;2023-04-01T15:58:18;6.93;;;6.00;;
14342;SDS011;7255;53.596;9.960;2023-04-01T16:00:56;13.43;;;6.57;;
14342;SDS011;7255;53.596;9.960;2023-04-01T16:03:35;8.23;;;6.30;;
14342;SDS011;7255;53.596;9.960;2023-04-01T16:06:16;8.07;;;6.50;;
14342;SDS011;7255;53.596;9.960;2023-04-01T16:09:03;10.47;;;5.97;;
14342;SDS011;7255;53.596;9.960;2023-04-01T16:11:48;9.47;;;6.20;;
14342;SDS011;7255;53.596;9.960;2023-04-01T16:14:26;10.37;;;6.80;;
14342;SDS011;7255;53.596;9.960;2023-04-01T16:17:03;9.47;;;6.70;;
14342;SDS011;7255;53.596;9.960;2023-04-01T16:19:41;11.17;;;6.10;;
14342;SDS011;7255;53.596;9.960;2023-04-01T16:22:17;13.00;;;6.80;;
14342;SDS011;7255;53.596;9.960;2023-04-01T16:24:51;9.10;;;6.20;;
14342;SDS011;7255;53.596;9.960;2023-04-01T16:27:24;9.03;;;6.10;;
14342;SDS011;7255;53.596;9.960;2023-04-01T16:29:56;10.30;;;6.23;;
14342;SDS011;7255;53.596;9.960;2023-04-01T16:32:31;8.87;;;6.40;;
14342;SDS011;7255;53.596;9.960;2023-04-01T16:35:10;7.83;;;5.70;;
14342;SDS011;7255;53.596;9.960;2023-04-01T16:37:48;9.20;;;6.50;;
14342;SDS011;7255;53.596;9.960;2023-04-01T16:40:23;9.30;;;5.87;;